createdAt,value
2023-08-28T00:01:30.166Z,13.50
2023-08-28T00:04:02.211Z,17.20
2023-08-28T00:06:34.095Z,14.80
2023-08-28T00:09:06.866Z,14.60
2023-08-28T00:11:38.972Z,14.40
2023-08-28T00:14:11.141Z,13.70
2023-08-28T00:16:43.072Z,15.30
2023-08-28T00:19:15.231Z,15.10
2023-08-28T00:21:47.260Z,20.60
2023-08-28T00:24:19.148Z,16.70
2023-08-28T00:26:51.349Z,15.70
2023-08-28T00:29:23.289Z,14.60
2023-08-28T00:31:55.612Z,14.90
2023-08-28T00:34:28.319Z,17.90
2023-08-28T00:37:00.380Z,13.20
2023-08-28T00:39:32.413Z,18.80
2023-08-28T00:42:04.410Z,21.60
2023-08-28T00:44:36.676Z,12.60
2023-08-28T00:47:11.917Z,13.70
2023-08-28T00:49:44.935Z,16.70
2023-08-28T00:52:17.166Z,14.50
2023-08-28T00:54:49.076Z,18.20
2023-08-28T00:57:22.244Z,15.00
2023-08-28T00:59:54.254Z,15.90
2023-08-28T01:02:26.202Z,14.60
2023-08-28T01:04:59.950Z,16.20
2023-08-28T01:07:36.163Z,15.10
2023-08-28T01:10:12.449Z,15.40
2023-08-28T01:12:49.232Z,19.70
2023-08-28T01:15:22.204Z,15.00
2023-08-28T01:17:56.240Z,18.90
2023-08-28T01:20:29.751Z,19.10
2023-08-28T01:23:04.640Z,19.20
2023-08-28T01:25:37.472Z,18.80
2023-08-28T01:28:09.524Z,18.70
2023-08-28T01:30:41.884Z,17.40
2023-08-28T01:33:14.211Z,16.40
2023-08-28T01:35:46.672Z,19.00
2023-08-28T01:38:25.735Z,17.00
2023-08-28T01:41:00.198Z,17.50
2023-08-28T01:43:33.705Z,20.70
2023-08-28T01:46:06.285Z,17.00
2023-08-28T01:48:43.793Z,13.80
2023-08-28T01:51:15.736Z,15.10
2023-08-28T01:53:47.637Z,15.30
2023-08-28T01:56:21.921Z,18.00
2023-08-28T01:58:55.408Z,16.30
2023-08-28T02:01:28.155Z,18.30
2023-08-28T02:04:01.766Z,17.20
2023-08-28T02:06:33.948Z,19.70
2023-08-28T02:09:06.425Z,17.90
2023-08-28T02:11:38.555Z,15.60
2023-08-28T02:14:11.228Z,18.60
2023-08-28T02:16:43.326Z,19.80
2023-08-28T02:19:15.541Z,17.50
2023-08-28T02:21:47.599Z,17.50
2023-08-28T02:24:19.767Z,16.30
2023-08-28T02:26:52.129Z,15.80
2023-08-28T02:29:24.593Z,16.70
2023-08-28T02:31:56.482Z,22.30
2023-08-28T02:34:29.344Z,18.80
2023-08-28T02:37:01.270Z,17.30
2023-08-28T02:39:34.332Z,17.40
2023-08-28T02:42:06.957Z,18.70
2023-08-28T02:44:39.149Z,17.60
2023-08-28T02:47:11.872Z,17.20
2023-08-28T02:49:44.058Z,21.30
2023-08-28T02:52:16.128Z,15.40
2023-08-28T02:54:48.834Z,20.90
2023-08-28T02:57:20.813Z,21.80
2023-08-28T02:59:52.749Z,17.00
2023-08-28T03:02:24.749Z,17.60
2023-08-28T03:04:57.074Z,19.20
2023-08-28T03:07:29.112Z,17.30
2023-08-28T03:10:01.191Z,18.40
2023-08-28T03:12:33.208Z,19.00
2023-08-28T03:15:05.695Z,20.20
2023-08-28T03:17:37.987Z,20.80
2023-08-28T03:20:11.756Z,19.40
2023-08-28T03:22:44.001Z,18.10
2023-08-28T03:25:16.342Z,20.60
2023-08-28T03:27:48.557Z,17.70
2023-08-28T03:30:20.728Z,22.30
2023-08-28T03:32:52.618Z,19.80
2023-08-28T03:35:24.981Z,18.10
2023-08-28T03:37:56.906Z,20.10
2023-08-28T03:40:29.033Z,17.80
2023-08-28T03:43:01.587Z,23.70
2023-08-28T03:45:34.634Z,18.80
2023-08-28T03:48:07.920Z,21.60
2023-08-28T03:50:40.808Z,23.90
2023-08-28T03:53:12.856Z,19.80
2023-08-28T03:55:44.828Z,20.60
2023-08-28T03:58:17.033Z,18.00
2023-08-28T04:00:50.229Z,29.80
2023-08-28T04:03:22.862Z,24.30
2023-08-28T04:05:55.586Z,21.60
2023-08-28T04:08:28.567Z,25.30
2023-08-28T04:11:02.360Z,24.90
2023-08-28T04:13:34.251Z,22.70
2023-08-28T04:16:07.366Z,18.80
2023-08-28T04:18:39.304Z,20.10
2023-08-28T04:21:11.371Z,28.00
2023-08-28T04:23:43.366Z,22.00
2023-08-28T04:26:15.295Z,29.40
2023-08-28T04:28:47.286Z,26.90
2023-08-28T04:31:20.565Z,25.00
2023-08-28T04:33:52.646Z,31.30
2023-08-28T04:36:24.666Z,27.10
2023-08-28T04:38:56.985Z,32.10
2023-08-28T04:41:28.958Z,31.90
2023-08-28T04:44:01.095Z,29.50
2023-08-28T04:46:34.047Z,24.00
2023-08-28T04:49:06.747Z,19.30
2023-08-28T04:51:38.682Z,22.80
2023-08-28T04:54:10.867Z,26.60
2023-08-28T04:56:43.057Z,22.30
2023-08-28T04:59:15.097Z,22.50
2023-08-28T05:01:46.989Z,30.70
2023-08-28T05:04:19.062Z,24.20
2023-08-28T05:06:51.093Z,20.60
2023-08-28T05:09:23.148Z,23.60
2023-08-28T05:11:55.228Z,22.80
2023-08-28T05:14:27.774Z,24.20
2023-08-28T05:16:59.844Z,23.00
2023-08-28T05:19:31.973Z,21.20
2023-08-28T05:22:04.956Z,22.50
2023-08-28T05:24:37.215Z,30.70
2023-08-28T05:27:10.550Z,43.40
2023-08-28T05:29:42.704Z,45.40
2023-08-28T05:32:15.583Z,34.50
2023-08-28T05:34:49.222Z,28.10
2023-08-28T05:37:28.925Z,30.60
2023-08-28T05:40:01.103Z,31.60
2023-08-28T05:42:33.671Z,29.40
2023-08-28T05:45:06.341Z,27.50
2023-08-28T05:47:39.979Z,28.90
2023-08-28T05:50:13.854Z,25.60
2023-08-28T05:52:45.953Z,36.00
2023-08-28T05:55:18.388Z,27.70
2023-08-28T05:57:50.585Z,31.00
2023-08-28T06:00:23.413Z,24.40
2023-08-28T06:02:55.789Z,32.90
2023-08-28T06:05:28.097Z,23.10
2023-08-28T06:08:00.277Z,31.90
2023-08-28T06:10:35.353Z,26.40
2023-08-28T06:13:07.998Z,24.60
2023-08-28T06:15:39.943Z,17.80
2023-08-28T06:18:11.917Z,20.20
2023-08-28T06:20:44.529Z,16.20
2023-08-28T06:23:19.124Z,18.30
2023-08-28T06:25:51.595Z,14.90
2023-08-28T06:28:24.009Z,18.50
2023-08-28T06:30:56.370Z,17.20
2023-08-28T06:33:28.463Z,13.10
2023-08-28T06:36:01.096Z,17.70
2023-08-28T06:38:32.987Z,12.50
2023-08-28T06:41:05.333Z,21.80
2023-08-28T06:43:37.290Z,23.60
2023-08-28T06:46:09.264Z,15.40
2023-08-28T06:48:41.651Z,17.40
2023-08-28T06:51:14.233Z,14.60
2023-08-28T06:53:46.299Z,19.40
2023-08-28T06:56:18.263Z,17.90
2023-08-28T06:58:50.225Z,12.30
2023-08-28T07:01:23.826Z,16.20
2023-08-28T07:03:55.829Z,18.90
2023-08-28T07:06:27.866Z,14.10
2023-08-28T07:09:00.985Z,12.70
2023-08-28T07:11:33.124Z,18.00
2023-08-28T07:14:05.729Z,16.80
2023-08-28T07:16:37.893Z,15.40
2023-08-28T07:19:10.051Z,18.00
2023-08-28T07:21:42.005Z,14.20
2023-08-28T07:24:14.194Z,14.90
2023-08-28T07:26:46.449Z,13.40
2023-08-28T07:29:18.905Z,14.80
2023-08-28T07:31:50.951Z,15.30
2023-08-28T07:34:22.873Z,13.10
2023-08-28T07:36:55.096Z,11.80
2023-08-28T07:39:27.129Z,10.50
2023-08-28T07:42:00.570Z,10.60
2023-08-28T07:44:32.544Z,10.20
2023-08-28T07:47:04.723Z,10.20
2023-08-28T07:49:36.545Z,11.90
2023-08-28T07:52:08.962Z,11.60
2023-08-28T07:54:40.877Z,8.80
2023-08-28T07:57:13.346Z,11.60
2023-08-28T07:59:45.231Z,15.30
2023-08-28T08:02:17.341Z,12.10
2023-08-28T08:04:49.146Z,10.10
2023-08-28T08:07:21.226Z,9.20
2023-08-28T08:09:53.207Z,12.10
2023-08-28T08:12:28.583Z,9.20
2023-08-28T08:15:00.564Z,10.20
2023-08-28T08:17:32.703Z,11.80
2023-08-28T08:20:05.780Z,9.80
2023-08-28T08:22:38.258Z,9.70
2023-08-28T08:25:12.809Z,9.10
2023-08-28T08:27:47.145Z,12.20
2023-08-28T08:30:19.453Z,10.00
2023-08-28T08:32:51.576Z,11.90
2023-08-28T08:35:23.644Z,12.50
2023-08-28T08:37:55.610Z,9.50
2023-08-28T08:40:29.432Z,9.30
2023-08-28T08:43:03.533Z,10.90
2023-08-28T08:45:37.086Z,9.80
2023-08-28T08:48:10.538Z,14.10
2023-08-28T08:50:44.028Z,8.50
2023-08-28T08:53:19.100Z,12.50
2023-08-28T08:55:50.890Z,8.80
2023-08-28T08:58:23.149Z,11.30
2023-08-28T09:00:55.048Z,12.60
2023-08-28T09:03:27.115Z,9.20
2023-08-28T09:06:00.658Z,8.70
2023-08-28T09:08:32.703Z,13.10
2023-08-28T09:11:06.180Z,8.00
2023-08-28T09:13:38.386Z,10.10
2023-08-28T09:16:11.111Z,12.80
2023-08-28T09:18:43.927Z,8.20
2023-08-28T09:21:17.765Z,7.90
2023-08-28T09:23:52.763Z,8.90
2023-08-28T09:26:25.766Z,7.70
2023-08-28T09:29:05.806Z,9.70
2023-08-28T09:31:38.314Z,8.70
2023-08-28T09:34:10.555Z,7.70
2023-08-28T09:36:45.602Z,7.40
2023-08-28T09:39:18.044Z,13.30
2023-08-28T09:41:50.437Z,7.40
2023-08-28T09:44:22.445Z,8.20
2023-08-28T09:46:57.222Z,7.30
2023-08-28T09:49:29.205Z,7.50
2023-08-28T09:52:04.863Z,10.00
2023-08-28T09:54:36.805Z,8.80
2023-08-28T09:57:20.192Z,11.60
2023-08-28T09:59:52.485Z,7.70
2023-08-28T10:02:25.168Z,7.20
2023-08-28T10:04:57.280Z,7.70
2023-08-28T10:07:30.684Z,8.10
2023-08-28T10:10:04.275Z,7.80
2023-08-28T10:12:36.578Z,9.70
2023-08-28T10:15:10.381Z,8.70
2023-08-28T10:17:42.556Z,11.70
2023-08-28T10:20:14.999Z,8.50
2023-08-28T10:22:46.947Z,8.60
2023-08-28T10:25:20.508Z,8.80
2023-08-28T10:27:52.765Z,9.60
2023-08-28T10:30:25.373Z,8.40
2023-08-28T10:32:57.736Z,8.40
2023-08-28T10:35:29.873Z,10.50
2023-08-28T10:38:01.836Z,11.30
2023-08-28T10:40:34.713Z,9.00
2023-08-28T10:43:07.227Z,11.80
2023-08-28T10:45:40.225Z,6.60
2023-08-28T10:48:12.164Z,9.10
2023-08-28T10:50:44.166Z,7.10
2023-08-28T10:53:17.965Z,8.20
2023-08-28T10:55:56.069Z,6.80
2023-08-28T10:58:30.686Z,6.60
2023-08-28T11:01:16.925Z,7.40
2023-08-28T11:03:59.509Z,8.30
2023-08-28T11:06:43.948Z,9.40
2023-08-28T11:09:37.224Z,6.50
2023-08-28T11:12:32.011Z,7.90
2023-08-28T11:15:08.126Z,7.20
2023-08-28T11:17:40.414Z,12.50
2023-08-28T11:20:13.547Z,7.60
2023-08-28T11:22:48.237Z,6.40
2023-08-28T11:25:38.634Z,6.50
2023-08-28T11:28:24.114Z,7.20
2023-08-28T11:30:56.379Z,6.90
2023-08-28T11:33:28.818Z,6.70
2023-08-28T11:36:04.900Z,9.50
2023-08-28T11:38:37.066Z,9.80
2023-08-28T11:41:10.158Z,5.50
2023-08-28T11:43:43.036Z,6.00
2023-08-28T11:46:15.446Z,7.40
2023-08-28T11:48:49.901Z,6.10
2023-08-28T11:51:28.547Z,8.00
2023-08-28T11:54:01.415Z,7.10
2023-08-28T11:56:37.307Z,8.00
2023-08-28T11:59:09.302Z,7.00
2023-08-28T12:01:41.427Z,6.30
2023-08-28T12:04:13.655Z,7.20
2023-08-28T12:06:45.846Z,10.90
2023-08-28T12:09:18.024Z,7.60
2023-08-28T12:11:50.150Z,10.00
2023-08-28T12:14:24.139Z,7.60
2023-08-28T12:17:02.235Z,11.60
2023-08-28T12:19:36.199Z,8.20
2023-08-28T12:22:13.015Z,7.80
2023-08-28T12:24:45.833Z,7.10
2023-08-28T12:27:18.472Z,10.90
2023-08-28T12:29:50.537Z,7.40
2023-08-28T12:32:23.125Z,10.70
2023-08-28T12:34:55.248Z,8.10
2023-08-28T12:37:27.187Z,7.30
2023-08-28T12:39:59.631Z,7.10
2023-08-28T12:42:31.596Z,9.70
2023-08-28T12:45:05.100Z,9.60
2023-08-28T12:47:38.725Z,6.90
2023-08-28T12:50:12.417Z,7.70
2023-08-28T12:52:46.051Z,6.50
2023-08-28T12:55:18.340Z,6.70
2023-08-28T12:57:50.574Z,7.40
2023-08-28T13:00:25.344Z,7.50
2023-08-28T13:02:57.588Z,6.60
2023-08-28T13:05:29.942Z,9.20
2023-08-28T13:08:09.585Z,7.60
2023-08-28T13:10:45.458Z,5.70
2023-08-28T13:13:17.741Z,7.10
2023-08-28T13:15:50.139Z,6.50
2023-08-28T13:18:22.247Z,6.20
2023-08-28T13:20:54.989Z,9.00
2023-08-28T13:23:27.326Z,14.30
2023-08-28T13:25:59.467Z,7.50
2023-08-28T13:28:31.504Z,9.90
2023-08-28T13:31:09.993Z,8.30
2023-08-28T13:33:41.955Z,7.60
2023-08-28T13:36:13.921Z,10.20
2023-08-28T13:38:46.018Z,9.00
2023-08-28T13:41:19.839Z,10.90
2023-08-28T13:43:51.730Z,9.00
2023-08-28T13:46:23.770Z,7.40
2023-08-28T13:48:55.935Z,8.30
2023-08-28T13:51:28.146Z,7.50
2023-08-28T13:54:00.202Z,10.20
2023-08-28T13:56:32.242Z,9.10
2023-08-28T13:59:07.211Z,8.60
2023-08-28T14:01:39.918Z,11.90
2023-08-28T14:04:12.079Z,8.60
2023-08-28T14:06:43.964Z,9.00
2023-08-28T14:09:15.975Z,8.90
2023-08-28T14:11:48.173Z,7.60
2023-08-28T14:14:20.417Z,6.70
2023-08-28T14:16:52.491Z,6.40
2023-08-28T14:19:24.479Z,6.20
2023-08-28T14:21:56.448Z,11.50
2023-08-28T14:24:28.410Z,8.50
2023-08-28T14:27:02.005Z,9.50
2023-08-28T14:29:34.626Z,8.10
2023-08-28T14:32:07.247Z,5.80
2023-08-28T14:34:39.210Z,7.40
2023-08-28T14:37:11.341Z,5.90
2023-08-28T14:39:43.453Z,10.20
2023-08-28T14:42:15.386Z,6.20
2023-08-28T14:44:47.453Z,8.20
2023-08-28T14:47:19.448Z,10.60
2023-08-28T14:49:51.704Z,11.50
2023-08-28T14:52:23.661Z,18.60
2023-08-28T14:54:55.616Z,12.80
2023-08-28T14:57:27.716Z,7.30
2023-08-28T14:59:59.683Z,7.00
2023-08-28T15:02:32.086Z,7.90
2023-08-28T15:05:04.664Z,6.70
2023-08-28T15:07:37.030Z,10.50
2023-08-28T15:10:10.161Z,9.50
2023-08-28T15:12:42.241Z,10.60
2023-08-28T15:15:14.602Z,7.00
2023-08-28T15:17:46.558Z,11.50
2023-08-28T15:20:18.741Z,9.50
2023-08-28T15:22:51.071Z,6.50
2023-08-28T15:25:23.032Z,8.20
2023-08-28T15:27:55.101Z,7.40
2023-08-28T15:30:29.722Z,6.40
2023-08-28T15:33:01.905Z,8.50
2023-08-28T15:35:34.469Z,8.20
2023-08-28T15:38:07.131Z,12.70
2023-08-28T15:40:39.317Z,8.60
2023-08-28T15:43:11.471Z,7.30
2023-08-28T15:45:51.431Z,7.70
2023-08-28T15:48:23.681Z,10.80
2023-08-28T15:50:55.720Z,6.90
2023-08-28T15:53:27.716Z,7.00
2023-08-28T15:55:59.942Z,8.00
2023-08-28T15:58:32.743Z,9.20
2023-08-28T16:01:04.972Z,11.00
2023-08-28T16:03:37.320Z,7.90
2023-08-28T16:06:10.867Z,13.50
2023-08-28T16:08:43.212Z,12.10
2023-08-28T16:11:15.166Z,7.90
2023-08-28T16:13:47.563Z,9.40
2023-08-28T16:16:19.682Z,8.90
2023-08-28T16:18:51.919Z,10.20
2023-08-28T16:21:23.995Z,6.90
2023-08-28T16:23:55.978Z,12.90
2023-08-28T16:26:28.092Z,10.70
2023-08-28T16:29:00.087Z,10.40
2023-08-28T16:31:32.164Z,9.70
2023-08-28T16:34:05.053Z,8.80
2023-08-28T16:36:37.292Z,14.60
2023-08-28T16:39:09.327Z,13.40
2023-08-28T16:41:41.438Z,11.90
2023-08-28T16:44:13.570Z,8.40
2023-08-28T16:46:46.210Z,10.10
2023-08-28T16:49:18.262Z,11.30
2023-08-28T16:51:50.272Z,10.10
2023-08-28T16:54:22.168Z,12.50
2023-08-28T16:56:54.335Z,8.40
2023-08-28T16:59:26.525Z,7.80
2023-08-28T17:01:58.529Z,9.00
2023-08-28T17:04:30.545Z,9.50
2023-08-28T17:07:02.591Z,15.60
2023-08-28T17:09:34.607Z,9.00
2023-08-28T17:12:07.642Z,7.90
2023-08-28T17:14:39.554Z,10.70
2023-08-28T17:17:12.173Z,8.70
2023-08-28T17:19:44.588Z,13.30
2023-08-28T17:22:16.483Z,11.80
2023-08-28T17:24:48.762Z,9.60
2023-08-28T17:27:20.993Z,9.00
2023-08-28T17:29:53.045Z,14.30
2023-08-28T17:32:30.506Z,12.10
2023-08-28T17:35:02.556Z,12.30
2023-08-28T17:37:34.461Z,12.30
2023-08-28T17:40:09.288Z,9.60
2023-08-28T17:42:41.624Z,9.10
2023-08-28T17:45:14.002Z,10.80
2023-08-28T17:47:45.935Z,11.50
2023-08-28T17:50:19.322Z,13.30
2023-08-28T17:52:51.410Z,10.40
2023-08-28T17:55:23.662Z,17.40
2023-08-28T17:57:55.553Z,11.60
2023-08-28T18:00:27.610Z,11.00
2023-08-28T18:03:03.754Z,10.30
2023-08-28T18:05:54.258Z,9.40
2023-08-28T18:08:28.209Z,10.10
2023-08-28T18:11:00.173Z,10.20
2023-08-28T18:13:32.129Z,10.10
2023-08-28T18:16:14.512Z,13.20
2023-08-28T18:18:47.019Z,13.80
2023-08-28T18:21:19.050Z,11.30
2023-08-28T18:23:52.641Z,10.30
2023-08-28T18:26:24.927Z,11.60
2023-08-28T18:28:57.731Z,9.90
2023-08-28T18:31:30.681Z,11.80
2023-08-28T18:34:02.797Z,10.20
2023-08-28T18:36:34.956Z,10.80
2023-08-28T18:39:07.153Z,12.60
2023-08-28T18:41:39.877Z,12.40
2023-08-28T18:44:12.028Z,10.30
2023-08-28T18:46:44.034Z,13.70
2023-08-28T18:49:16.098Z,11.20
2023-08-28T18:51:49.349Z,14.90
2023-08-28T18:54:22.115Z,12.60
2023-08-28T18:56:54.042Z,11.80
2023-08-28T18:59:26.176Z,16.70
2023-08-28T19:01:58.518Z,12.40
2023-08-28T19:04:30.412Z,14.00
2023-08-28T19:07:02.235Z,12.20
2023-08-28T19:09:36.241Z,13.60
2023-08-28T19:12:09.621Z,10.00
2023-08-28T19:14:42.201Z,11.60
2023-08-28T19:17:14.663Z,17.30
2023-08-28T19:19:46.761Z,12.70
2023-08-28T19:22:18.967Z,10.80
2023-08-28T19:24:51.484Z,11.30
2023-08-28T19:27:23.736Z,11.70
2023-08-28T19:29:56.422Z,11.80
2023-08-28T19:32:38.318Z,11.40
2023-08-28T19:35:13.563Z,11.20
2023-08-28T19:37:46.728Z,11.70
2023-08-28T19:40:18.681Z,10.50
2023-08-28T19:42:51.055Z,13.50
2023-08-28T19:45:23.539Z,12.10
2023-08-28T19:47:55.645Z,11.60
2023-08-28T19:50:28.020Z,14.90
2023-08-28T19:52:59.968Z,11.40
2023-08-28T19:55:32.237Z,13.00
2023-08-28T19:58:04.786Z,13.00
2023-08-28T20:00:37.730Z,11.70
2023-08-28T20:03:10.044Z,14.60
2023-08-28T20:05:42.165Z,10.90
2023-08-28T20:08:14.413Z,13.00
2023-08-28T20:10:46.446Z,13.20
2023-08-28T20:13:18.393Z,13.80
2023-08-28T20:15:52.633Z,15.30
2023-08-28T20:18:24.944Z,13.90
2023-08-28T20:20:56.956Z,15.70
2023-08-28T20:23:29.975Z,14.20
2023-08-28T20:26:04.171Z,12.40
2023-08-28T20:28:37.449Z,12.70
2023-08-28T20:31:09.594Z,16.40
2023-08-28T20:33:41.624Z,12.30
2023-08-28T20:36:13.538Z,15.00
2023-08-28T20:38:45.522Z,12.60
2023-08-28T20:41:18.502Z,11.50
2023-08-28T20:43:50.902Z,13.70
2023-08-28T20:46:23.762Z,17.40
2023-08-28T20:48:55.710Z,12.60
2023-08-28T20:51:28.323Z,12.00
2023-08-28T20:54:00.582Z,11.70
2023-08-28T20:56:32.704Z,12.40
2023-08-28T20:59:04.565Z,11.90
2023-08-28T21:01:36.689Z,15.90
2023-08-28T21:04:09.157Z,12.10
2023-08-28T21:06:41.092Z,13.20
2023-08-28T21:09:13.006Z,11.40
2023-08-28T21:11:45.572Z,11.70
2023-08-28T21:14:17.677Z,13.80
2023-08-28T21:16:50.090Z,11.70
2023-08-28T21:19:27.598Z,13.50
2023-08-28T21:22:00.154Z,13.20
2023-08-28T21:24:31.984Z,12.50
2023-08-28T21:27:04.502Z,11.10
2023-08-28T21:29:37.443Z,11.60
2023-08-28T21:32:10.006Z,12.60
2023-08-28T21:34:41.855Z,12.50
2023-08-28T21:37:13.763Z,11.10
2023-08-28T21:39:45.969Z,12.00
2023-08-28T21:42:17.817Z,12.50
2023-08-28T21:44:49.841Z,10.60
2023-08-28T21:47:21.807Z,11.80
2023-08-28T21:50:14.364Z,11.10
2023-08-28T21:53:05.718Z,10.50
2023-08-28T21:55:56.069Z,11.70
2023-08-28T21:58:46.463Z,11.90
2023-08-28T22:01:37.502Z,14.20
2023-08-28T22:04:27.651Z,11.60
2023-08-28T22:07:18.653Z,12.60
2023-08-28T22:10:08.473Z,11.60
2023-08-28T22:12:52.290Z,12.90
2023-08-28T22:15:33.228Z,11.30
2023-08-28T22:18:06.278Z,11.50
2023-08-28T22:20:43.276Z,12.20
2023-08-28T22:23:15.564Z,14.30
2023-08-28T22:25:47.595Z,11.70
2023-08-28T22:28:19.593Z,12.70
2023-08-28T22:30:51.614Z,11.40
2023-08-28T22:33:23.698Z,14.20
2023-08-28T22:35:55.667Z,13.50
2023-08-28T22:38:27.595Z,14.10
2023-08-28T22:40:59.751Z,12.50
2023-08-28T22:43:31.698Z,15.10
2023-08-28T22:46:03.690Z,20.40
2023-08-28T22:48:37.142Z,14.20
2023-08-28T22:51:10.218Z,15.10
2023-08-28T22:53:42.206Z,14.00
2023-08-28T22:56:14.911Z,13.60
2023-08-28T22:58:47.057Z,14.90
2023-08-28T23:01:18.938Z,13.70
2023-08-28T23:03:50.929Z,12.80
2023-08-28T23:06:23.698Z,13.80
2023-08-28T23:08:55.605Z,16.00
2023-08-28T23:11:27.425Z,15.80
2023-08-28T23:13:59.329Z,16.10
2023-08-28T23:16:31.204Z,17.50
2023-08-28T23:19:03.441Z,14.00
2023-08-28T23:21:35.336Z,17.60
2023-08-28T23:24:09.713Z,14.80
2023-08-28T23:26:41.727Z,18.10
2023-08-28T23:29:15.574Z,15.00
2023-08-28T23:31:47.616Z,16.40
2023-08-28T23:34:19.543Z,14.00
2023-08-28T23:36:52.476Z,14.20
2023-08-28T23:39:24.458Z,13.40
2023-08-28T23:41:56.344Z,15.30
2023-08-28T23:44:28.280Z,13.20
2023-08-28T23:47:00.158Z,14.20
2023-08-28T23:49:32.154Z,12.90
2023-08-28T23:52:04.142Z,14.60
2023-08-28T23:54:36.120Z,12.70
2023-08-28T23:57:08.648Z,13.50
2023-08-28T23:59:40.972Z,14.90
